createdAt,value
2022-12-08T00:01:12.644Z,3.45
2022-12-08T00:03:39.435Z,3.39
2022-12-08T00:06:25.926Z,3.42
2022-12-08T00:09:10.832Z,3.51
2022-12-08T00:11:37.369Z,3.58
2022-12-08T00:14:03.735Z,3.61
2022-12-08T00:16:30.109Z,3.63
2022-12-08T00:18:56.493Z,3.69
2022-12-08T00:21:22.818Z,3.69
2022-12-08T00:23:55.070Z,3.65
2022-12-08T00:26:21.901Z,3.71
2022-12-08T00:28:48.464Z,3.74
2022-12-08T00:31:17.644Z,3.73
2022-12-08T00:33:44.032Z,3.70
2022-12-08T00:36:13.231Z,3.75
2022-12-08T00:38:40.009Z,3.66
2022-12-08T00:41:14.926Z,3.69
2022-12-08T00:43:42.126Z,3.67
2022-12-08T00:46:08.600Z,3.75
2022-12-08T00:48:35.254Z,3.76
2022-12-08T00:51:01.830Z,3.76
2022-12-08T00:53:28.186Z,3.74
2022-12-08T00:55:54.533Z,3.71
2022-12-08T00:58:20.842Z,3.74
2022-12-08T01:00:47.258Z,3.78
2022-12-08T01:03:13.690Z,3.76
2022-12-08T01:05:40.046Z,3.76
2022-12-08T01:08:07.909Z,3.64
2022-12-08T01:10:39.424Z,3.71
2022-12-08T01:13:06.154Z,3.68
2022-12-08T01:15:32.463Z,3.76
2022-12-08T01:17:59.014Z,3.76
2022-12-08T01:20:25.389Z,3.75
2022-12-08T01:22:51.943Z,3.83
2022-12-08T01:25:18.445Z,3.94
2022-12-08T01:27:44.978Z,3.89
2022-12-08T01:30:13.145Z,3.93
2022-12-08T01:32:39.500Z,3.99
2022-12-08T01:35:05.922Z,3.97
2022-12-08T01:37:32.227Z,3.92
2022-12-08T01:39:58.748Z,3.93
2022-12-08T01:42:27.814Z,4.02
2022-12-08T01:45:06.805Z,3.95
2022-12-08T01:47:46.165Z,3.94
2022-12-08T01:50:15.912Z,3.93
2022-12-08T01:53:04.331Z,3.85
2022-12-08T01:55:49.204Z,3.93
2022-12-08T01:58:26.617Z,3.97
2022-12-08T02:00:53.115Z,3.95
2022-12-08T02:03:28.060Z,3.99
2022-12-08T02:05:54.721Z,3.98
2022-12-08T02:08:22.754Z,3.99
2022-12-08T02:10:52.234Z,3.93
2022-12-08T02:13:21.411Z,3.87
2022-12-08T02:16:01.540Z,3.89
2022-12-08T02:19:08.025Z,3.93
2022-12-08T02:21:55.722Z,3.97
2022-12-08T02:24:38.877Z,3.99
2022-12-08T02:27:25.889Z,4.11
2022-12-08T02:30:23.781Z,4.05
2022-12-08T02:33:05.318Z,3.99
2022-12-08T02:35:43.995Z,3.97
2022-12-08T02:38:19.437Z,3.99
2022-12-08T02:41:01.047Z,4.01
2022-12-08T02:43:50.595Z,4.05
2022-12-08T02:46:31.107Z,3.96
2022-12-08T02:48:58.984Z,4.01
2022-12-08T02:51:25.553Z,3.93
2022-12-08T02:53:52.513Z,4.00
2022-12-08T02:56:43.087Z,4.01
2022-12-08T02:59:28.504Z,4.14
2022-12-08T03:02:07.130Z,4.14
2022-12-08T03:04:44.654Z,4.12
2022-12-08T03:07:21.967Z,4.15
2022-12-08T03:09:56.415Z,4.10
2022-12-08T03:12:34.950Z,4.04
2022-12-08T03:15:09.366Z,3.95
2022-12-08T03:17:38.369Z,3.85
2022-12-08T03:20:09.624Z,3.88
2022-12-08T03:22:38.530Z,3.96
2022-12-08T03:25:05.798Z,4.05
2022-12-08T03:27:32.645Z,4.03
2022-12-08T03:30:00.729Z,3.61
2022-12-08T03:32:39.214Z,3.48
2022-12-08T03:35:09.394Z,3.58
2022-12-08T03:37:37.830Z,3.65
2022-12-08T03:40:06.679Z,3.72
2022-12-08T03:42:33.239Z,3.77
2022-12-08T03:44:59.700Z,3.84
2022-12-08T03:47:26.358Z,3.85
2022-12-08T03:49:52.663Z,3.85
2022-12-08T03:52:18.986Z,3.82
2022-12-08T03:54:45.325Z,3.84
2022-12-08T03:57:11.720Z,3.85
2022-12-08T03:59:38.059Z,3.91
2022-12-08T04:02:04.399Z,3.80
2022-12-08T04:04:31.098Z,3.72
2022-12-08T04:06:57.450Z,3.68
2022-12-08T04:09:23.813Z,3.68
2022-12-08T04:11:50.162Z,3.68
2022-12-08T04:14:16.587Z,3.62
2022-12-08T04:16:42.936Z,3.66
2022-12-08T04:19:09.317Z,3.63
2022-12-08T04:21:35.637Z,3.63
2022-12-08T04:24:02.436Z,3.63
2022-12-08T04:26:29.008Z,3.74
2022-12-08T04:28:55.338Z,3.76
2022-12-08T04:31:21.752Z,3.75
2022-12-08T04:33:48.594Z,3.75
2022-12-08T04:36:15.163Z,3.68
2022-12-08T04:38:41.486Z,3.70
2022-12-08T04:41:07.912Z,3.58
2022-12-08T04:43:35.366Z,3.59
2022-12-08T04:46:01.701Z,3.49
2022-12-08T04:48:28.114Z,3.55
2022-12-08T04:50:54.465Z,3.56
2022-12-08T04:53:21.239Z,3.58
2022-12-08T04:55:49.512Z,3.66
2022-12-08T04:58:19.017Z,3.67
2022-12-08T05:00:46.835Z,3.67
2022-12-08T05:03:14.520Z,3.63
2022-12-08T05:05:41.959Z,3.67
2022-12-08T05:08:09.626Z,3.70
2022-12-08T05:10:36.366Z,3.73
2022-12-08T05:13:02.790Z,3.65
2022-12-08T05:15:29.150Z,3.69
2022-12-08T05:17:55.503Z,3.63
2022-12-08T05:20:21.986Z,3.71
2022-12-08T05:22:48.349Z,3.68
2022-12-08T05:25:14.967Z,3.64
2022-12-08T05:27:41.937Z,3.72
2022-12-08T05:30:08.431Z,3.65
2022-12-08T05:32:34.808Z,3.66
2022-12-08T05:35:01.140Z,3.74
2022-12-08T05:37:27.472Z,3.67
2022-12-08T05:39:53.781Z,3.56
2022-12-08T05:42:24.618Z,3.64
2022-12-08T05:44:51.462Z,3.55
2022-12-08T05:47:17.805Z,3.49
2022-12-08T05:49:44.837Z,3.52
2022-12-08T05:52:11.197Z,3.53
2022-12-08T05:54:38.032Z,3.53
2022-12-08T05:57:04.445Z,3.52
2022-12-08T05:59:30.753Z,3.50
2022-12-08T06:01:57.150Z,3.56
2022-12-08T06:04:23.515Z,3.52
2022-12-08T06:06:49.831Z,3.34
2022-12-08T06:09:16.345Z,3.42
2022-12-08T06:11:42.845Z,3.25
2022-12-08T06:14:14.441Z,3.26
2022-12-08T06:16:40.974Z,3.39
2022-12-08T06:19:07.463Z,3.44
2022-12-08T06:21:34.061Z,3.45
2022-12-08T06:24:00.396Z,3.61
2022-12-08T06:26:26.817Z,3.55
2022-12-08T06:28:53.164Z,3.60
2022-12-08T06:31:25.690Z,3.62
2022-12-08T06:33:53.550Z,3.68
2022-12-08T06:36:23.194Z,3.69
2022-12-08T06:38:49.641Z,3.72
2022-12-08T06:41:16.552Z,3.72
2022-12-08T06:43:43.214Z,3.74
2022-12-08T06:46:13.138Z,3.66
2022-12-08T06:48:39.749Z,3.69
2022-12-08T06:51:08.087Z,3.77
2022-12-08T06:53:34.613Z,3.74
2022-12-08T06:56:01.134Z,3.68
2022-12-08T06:58:27.466Z,3.70
2022-12-08T07:00:53.989Z,3.74
2022-12-08T07:03:20.520Z,3.73
2022-12-08T07:05:47.073Z,3.74
2022-12-08T07:08:13.538Z,3.42
2022-12-08T07:10:39.958Z,3.01
2022-12-08T07:13:06.290Z,3.31
2022-12-08T07:15:32.615Z,3.42
2022-12-08T07:18:00.391Z,3.54
2022-12-08T07:20:27.137Z,3.61
2022-12-08T07:22:54.005Z,3.55
2022-12-08T07:25:20.459Z,3.60
2022-12-08T07:27:47.122Z,3.60
2022-12-08T07:30:14.142Z,3.61
2022-12-08T07:32:40.495Z,3.57
2022-12-08T07:35:08.231Z,3.59
2022-12-08T07:37:35.594Z,3.59
2022-12-08T07:40:02.336Z,3.49
2022-12-08T07:42:29.029Z,3.47
2022-12-08T07:44:55.564Z,3.55
2022-12-08T07:47:22.133Z,3.64
2022-12-08T07:49:48.445Z,3.69
2022-12-08T07:52:14.839Z,3.61
2022-12-08T07:54:41.154Z,3.66
2022-12-08T07:57:08.992Z,3.65
2022-12-08T07:59:35.620Z,3.66
2022-12-08T08:02:22.852Z,3.75
2022-12-08T08:04:51.573Z,3.72
2022-12-08T08:07:18.037Z,3.77
2022-12-08T08:09:45.532Z,3.83
2022-12-08T08:12:30.175Z,3.81
2022-12-08T08:14:57.386Z,3.87
2022-12-08T08:17:24.205Z,3.93
2022-12-08T08:19:50.632Z,3.94
2022-12-08T08:22:16.965Z,4.02
2022-12-08T08:24:45.165Z,3.98
2022-12-08T08:27:12.498Z,3.99
2022-12-08T08:29:38.862Z,4.04
2022-12-08T08:32:05.637Z,4.01
2022-12-08T08:34:34.293Z,4.09
2022-12-08T08:37:00.692Z,4.13
2022-12-08T08:39:27.142Z,4.19
2022-12-08T08:41:53.501Z,4.16
2022-12-08T08:44:19.841Z,4.17
2022-12-08T08:46:46.188Z,4.20
2022-12-08T08:49:13.073Z,4.15
2022-12-08T08:51:39.462Z,4.15
2022-12-08T08:54:05.843Z,4.17
2022-12-08T08:56:32.552Z,4.19
2022-12-08T08:58:59.010Z,3.97
2022-12-08T09:01:27.656Z,4.13
2022-12-08T09:03:55.420Z,4.12
2022-12-08T09:06:22.640Z,4.21
2022-12-08T09:08:50.057Z,4.24
2022-12-08T09:11:18.474Z,4.28
2022-12-08T09:13:48.380Z,4.25
2022-12-08T09:16:15.182Z,4.31
2022-12-08T09:18:41.905Z,4.37
2022-12-08T09:21:13.053Z,4.40
2022-12-08T09:23:39.421Z,4.46
2022-12-08T09:26:05.783Z,4.53
2022-12-08T09:28:32.779Z,4.48
2022-12-08T09:30:59.244Z,4.26
2022-12-08T09:33:25.658Z,4.30
2022-12-08T09:35:52.013Z,4.43
2022-12-08T09:38:18.558Z,4.55
2022-12-08T09:40:50.093Z,4.63
2022-12-08T09:43:40.896Z,4.72
2022-12-08T09:46:10.425Z,4.71
2022-12-08T09:48:44.511Z,4.74
2022-12-08T09:51:13.339Z,4.80
2022-12-08T09:53:48.251Z,4.81
2022-12-08T09:56:33.564Z,4.69
2022-12-08T09:59:03.858Z,4.73
2022-12-08T10:01:33.314Z,4.83
2022-12-08T10:04:01.008Z,4.55
2022-12-08T10:06:30.395Z,4.68
2022-12-08T10:09:38.052Z,4.80
2022-12-08T10:12:29.445Z,4.93
2022-12-08T10:15:17.915Z,5.05
2022-12-08T10:17:50.955Z,5.20
2022-12-08T10:20:26.155Z,5.10
2022-12-08T10:23:08.231Z,5.19
2022-12-08T10:26:00.881Z,5.13
2022-12-08T10:28:27.435Z,5.17
2022-12-08T10:30:53.903Z,5.34
2022-12-08T10:33:21.938Z,5.57
2022-12-08T10:35:58.342Z,5.61
2022-12-08T10:38:36.233Z,5.63
2022-12-08T10:41:11.694Z,5.67
2022-12-08T10:43:42.938Z,5.75
2022-12-08T10:46:19.587Z,5.86
2022-12-08T10:48:55.657Z,5.95
2022-12-08T10:51:25.204Z,6.04
2022-12-08T10:53:51.710Z,6.04
2022-12-08T10:56:18.109Z,6.03
2022-12-08T10:58:47.336Z,6.18
2022-12-08T11:01:26.328Z,5.90
2022-12-08T11:03:58.084Z,6.01
2022-12-08T11:06:30.400Z,6.16
2022-12-08T11:09:03.165Z,6.20
2022-12-08T11:11:50.222Z,6.23
2022-12-08T11:14:19.722Z,6.30
2022-12-08T11:16:46.328Z,6.39
2022-12-08T11:19:18.582Z,6.52
2022-12-08T11:21:46.089Z,6.55
2022-12-08T11:24:15.402Z,6.61
2022-12-08T11:26:50.074Z,6.60
2022-12-08T11:29:17.332Z,6.65
2022-12-08T11:31:49.861Z,6.69
2022-12-08T11:34:30.062Z,6.89
2022-12-08T11:36:57.367Z,6.91
2022-12-08T11:39:27.005Z,6.92
2022-12-08T11:41:56.420Z,6.89
2022-12-08T11:44:46.968Z,6.93
2022-12-08T11:47:25.362Z,6.96
2022-12-08T11:50:18.326Z,6.87
2022-12-08T11:52:49.884Z,6.83
2022-12-08T11:55:42.692Z,6.78
2022-12-08T11:58:38.759Z,6.84
2022-12-08T12:01:05.565Z,6.92
2022-12-08T12:03:43.693Z,6.92
2022-12-08T12:06:56.863Z,6.99
2022-12-08T12:09:29.218Z,7.09
2022-12-08T12:12:19.052Z,7.23
2022-12-08T12:15:10.061Z,7.37
2022-12-08T12:17:47.690Z,7.32
2022-12-08T12:20:20.964Z,7.50
2022-12-08T12:22:54.170Z,7.50
2022-12-08T12:25:23.704Z,7.50
2022-12-08T12:27:57.113Z,7.42
2022-12-08T12:30:26.499Z,7.36
2022-12-08T12:32:56.986Z,7.27
2022-12-08T12:35:28.956Z,7.14
2022-12-08T12:38:01.407Z,6.97
2022-12-08T12:40:34.017Z,6.95
2022-12-08T12:43:00.259Z,7.01
2022-12-08T12:45:31.924Z,7.09
2022-12-08T12:48:01.200Z,7.10
2022-12-08T12:50:33.880Z,7.03
2022-12-08T12:53:09.171Z,7.04
2022-12-08T12:55:53.865Z,7.08
2022-12-08T12:58:27.904Z,6.98
2022-12-08T13:01:19.948Z,6.85
2022-12-08T13:04:12.625Z,6.81
2022-12-08T13:06:46.766Z,6.92
2022-12-08T13:09:24.217Z,6.96
2022-12-08T13:11:54.763Z,7.01
2022-12-08T13:14:28.114Z,6.89
2022-12-08T13:16:57.483Z,6.89
2022-12-08T13:19:25.116Z,6.74
2022-12-08T13:21:51.464Z,6.65
2022-12-08T13:24:24.059Z,6.66
2022-12-08T13:27:10.994Z,6.65
2022-12-08T13:29:40.416Z,6.60
2022-12-08T13:32:09.678Z,6.75
2022-12-08T13:34:41.952Z,6.87
2022-12-08T13:37:11.327Z,6.75
2022-12-08T13:39:40.711Z,6.81
2022-12-08T13:42:19.102Z,6.85
2022-12-08T13:48:13.766Z,7.04
2022-12-08T13:53:00.054Z,6.86
2022-12-08T13:59:31.447Z,6.82
2022-12-08T14:02:04.310Z,6.76
2022-12-08T14:04:54.329Z,6.81
2022-12-08T14:07:18.457Z,6.84
2022-12-08T14:09:46.158Z,6.83
2022-12-08T14:12:20.517Z,6.86
2022-12-08T14:15:06.027Z,6.81
2022-12-08T14:17:33.479Z,6.97
2022-12-08T14:20:01.864Z,7.00
2022-12-08T14:22:37.348Z,7.12
2022-12-08T14:25:06.513Z,7.22
2022-12-08T14:27:37.171Z,7.21
2022-12-08T14:30:26.633Z,7.25
2022-12-08T14:32:58.766Z,7.20
2022-12-08T14:35:26.656Z,7.19
2022-12-08T14:37:57.166Z,7.14
2022-12-08T14:40:29.175Z,7.14
2022-12-08T14:43:07.546Z,7.12
2022-12-08T14:45:40.085Z,7.20
2022-12-08T14:48:31.418Z,7.27
2022-12-08T14:51:03.767Z,7.23
2022-12-08T14:53:56.284Z,7.18
2022-12-08T14:56:26.821Z,7.20
2022-12-08T14:59:07.941Z,7.08
2022-12-08T15:01:38.673Z,7.07
2022-12-08T15:04:17.692Z,7.02
2022-12-08T15:06:53.512Z,6.91
2022-12-08T15:09:34.165Z,6.84
2022-12-08T15:12:12.560Z,6.73
2022-12-08T15:14:53.811Z,6.66
2022-12-08T15:17:48.879Z,6.77
2022-12-08T15:20:35.852Z,6.70
2022-12-08T15:23:02.943Z,6.71
2022-12-08T15:25:32.468Z,6.67
2022-12-08T15:28:02.429Z,6.74
2022-12-08T15:30:29.638Z,6.70
2022-12-08T15:32:56.175Z,6.65
2022-12-08T15:35:22.687Z,6.57
2022-12-08T15:37:49.083Z,6.62
2022-12-08T15:40:18.813Z,6.67
2022-12-08T15:42:45.271Z,6.63
2022-12-08T15:45:15.941Z,6.64
2022-12-08T15:47:44.240Z,6.47
2022-12-08T15:50:17.074Z,6.36
2022-12-08T15:52:43.768Z,6.35
2022-12-08T15:55:18.434Z,6.35
2022-12-08T16:00:53.926Z,6.29
2022-12-08T16:09:32.996Z,6.02
2022-12-08T16:12:18.326Z,5.96
2022-12-08T16:17:32.065Z,5.82
2022-12-08T16:19:59.077Z,5.75
2022-12-08T16:25:20.210Z,5.84
2022-12-08T16:30:36.553Z,5.65
2022-12-08T16:33:02.877Z,5.68
2022-12-08T16:35:30.542Z,5.61
2022-12-08T16:37:57.434Z,5.68
2022-12-08T16:40:23.848Z,5.63
2022-12-08T16:42:50.528Z,5.60
2022-12-08T16:45:20.229Z,5.53
2022-12-08T16:47:49.050Z,5.41
2022-12-08T16:50:46.197Z,5.41
2022-12-08T16:53:13.038Z,5.36
2022-12-08T16:55:40.032Z,5.37
2022-12-08T16:58:06.796Z,5.38
2022-12-08T17:00:37.379Z,5.29
2022-12-08T17:03:10.779Z,5.20
2022-12-08T17:05:39.581Z,5.09
2022-12-08T17:08:05.944Z,5.04
2022-12-08T17:10:34.435Z,5.04
2022-12-08T17:13:02.145Z,5.08
2022-12-08T17:15:28.845Z,5.05
2022-12-08T17:17:55.229Z,4.95
2022-12-08T17:20:26.437Z,4.98
2022-12-08T17:22:58.937Z,4.98
2022-12-08T17:25:26.640Z,4.96
2022-12-08T17:27:53.130Z,5.01
2022-12-08T17:30:19.641Z,4.97
2022-12-08T17:32:45.986Z,4.91
2022-12-08T17:35:13.225Z,4.92
2022-12-08T17:37:39.570Z,4.80
2022-12-08T17:40:06.912Z,4.83
2022-12-08T17:42:33.540Z,4.79
2022-12-08T17:44:59.858Z,4.72
2022-12-08T17:47:26.185Z,4.74
2022-12-08T17:49:52.585Z,4.69
2022-12-08T17:52:18.963Z,4.68
2022-12-08T17:54:45.357Z,4.65
2022-12-08T17:57:11.695Z,4.71
2022-12-08T17:59:38.154Z,4.57
2022-12-08T18:02:04.652Z,4.62
2022-12-08T18:04:31.259Z,4.67
2022-12-08T18:07:00.107Z,4.68
2022-12-08T18:09:26.516Z,4.49
2022-12-08T18:11:52.943Z,4.44
2022-12-08T18:14:19.308Z,4.30
2022-12-08T18:16:46.903Z,4.33
2022-12-08T18:19:14.545Z,4.37
2022-12-08T18:21:41.546Z,4.39
2022-12-08T18:24:15.118Z,4.41
2022-12-08T18:26:41.690Z,4.30
2022-12-08T18:29:08.054Z,4.35
2022-12-08T18:31:34.387Z,4.30
2022-12-08T18:34:00.737Z,4.36
2022-12-08T18:36:27.076Z,4.33
2022-12-08T18:38:55.595Z,4.16
2022-12-08T18:41:25.566Z,4.26
2022-12-08T18:43:53.677Z,4.12
2022-12-08T18:46:20.291Z,4.15
2022-12-08T18:48:49.247Z,4.23
2022-12-08T18:51:21.235Z,4.22
2022-12-08T18:53:48.576Z,4.19
2022-12-08T18:56:34.495Z,4.07
2022-12-08T18:59:05.431Z,3.89
2022-12-08T19:01:33.953Z,3.67
2022-12-08T19:06:49.847Z,3.71
2022-12-08T19:09:17.331Z,3.66
2022-12-08T19:11:44.194Z,3.53
2022-12-08T19:14:10.977Z,3.43
2022-12-08T19:16:38.064Z,3.41
2022-12-08T19:19:05.013Z,3.38
2022-12-08T19:21:32.455Z,3.46
2022-12-08T19:23:59.855Z,3.53
2022-12-08T19:26:27.999Z,3.62
2022-12-08T19:28:54.687Z,3.66
2022-12-08T19:31:21.583Z,3.74
2022-12-08T19:33:47.987Z,3.81
2022-12-08T19:36:17.739Z,3.75
2022-12-08T19:39:02.786Z,3.76
2022-12-08T19:41:48.203Z,3.70
2022-12-08T19:44:52.862Z,3.47
2022-12-08T19:47:24.662Z,3.34
2022-12-08T19:49:52.087Z,3.31
2022-12-08T19:52:18.841Z,3.37
2022-12-08T19:54:45.231Z,3.40
2022-12-08T19:57:11.639Z,3.58
2022-12-08T19:59:39.276Z,3.60
2022-12-08T20:02:07.000Z,3.57
2022-12-08T20:04:33.406Z,3.51
2022-12-08T20:07:00.061Z,3.52
2022-12-08T20:09:26.499Z,3.54
2022-12-08T20:11:54.610Z,3.42
2022-12-08T20:14:22.940Z,3.50
2022-12-08T20:16:50.439Z,3.40
2022-12-08T20:19:17.581Z,3.49
2022-12-08T20:21:43.950Z,3.57
2022-12-08T20:24:10.418Z,3.44
2022-12-08T20:26:36.839Z,3.52
2022-12-08T20:29:03.283Z,3.43
2022-12-08T20:31:31.427Z,3.39
2022-12-08T20:33:57.842Z,3.26
2022-12-08T20:36:25.289Z,3.38
2022-12-08T20:38:53.087Z,3.37
2022-12-08T20:41:20.246Z,3.35
2022-12-08T20:43:47.864Z,3.35
2022-12-08T20:46:16.590Z,3.27
2022-12-08T20:48:44.164Z,3.25
2022-12-08T20:51:18.545Z,3.26
2022-12-08T20:53:45.670Z,3.24
2022-12-08T20:56:20.678Z,3.38
2022-12-08T20:58:47.730Z,3.39
2022-12-08T21:01:17.664Z,3.34
2022-12-08T21:03:45.216Z,3.15
2022-12-08T21:06:12.774Z,3.10
2022-12-08T21:08:40.427Z,3.19
2022-12-08T21:11:07.962Z,3.24
2022-12-08T21:13:34.635Z,3.19
2022-12-08T21:16:01.131Z,3.30
2022-12-08T21:18:27.682Z,3.27
2022-12-08T21:21:05.839Z,3.31
2022-12-08T21:23:33.681Z,3.32
2022-12-08T21:26:00.107Z,3.26
2022-12-08T21:28:44.738Z,3.29
2022-12-08T21:31:16.502Z,3.28
2022-12-08T21:33:50.788Z,3.33
2022-12-08T21:36:51.057Z,3.39
2022-12-08T21:39:17.622Z,3.38
2022-12-08T21:42:12.074Z,3.39
2022-12-08T21:44:38.981Z,3.46
2022-12-08T21:47:05.659Z,3.41
2022-12-08T21:49:40.101Z,3.45
2022-12-08T21:52:09.165Z,3.49
2022-12-08T21:54:35.925Z,3.52
2022-12-08T21:57:02.379Z,3.55
2022-12-08T21:59:28.789Z,3.53
2022-12-08T22:01:55.309Z,3.50
2022-12-08T22:04:22.431Z,3.57
2022-12-08T22:06:49.392Z,3.58
2022-12-08T22:09:15.981Z,3.55
2022-12-08T22:11:43.667Z,3.64
2022-12-08T22:14:14.400Z,3.78
2022-12-08T22:16:42.155Z,3.75
2022-12-08T22:19:08.758Z,3.72
2022-12-08T22:21:35.305Z,3.69
2022-12-08T22:24:01.805Z,3.69
2022-12-08T22:26:28.249Z,3.70
2022-12-08T22:28:54.674Z,3.79
2022-12-08T22:31:21.905Z,3.76
2022-12-08T22:33:49.488Z,3.69
2022-12-08T22:36:24.623Z,3.75
2022-12-08T22:38:52.077Z,3.78
2022-12-08T22:41:19.339Z,3.67
2022-12-08T22:43:46.838Z,3.71
2022-12-08T22:46:16.705Z,3.70
2022-12-08T22:48:43.787Z,3.61
2022-12-08T22:51:10.252Z,3.62
2022-12-08T22:53:37.139Z,3.56
2022-12-08T22:56:08.294Z,3.55
2022-12-08T22:58:35.339Z,3.55
2022-12-08T23:01:02.120Z,3.63
2022-12-08T23:03:28.758Z,3.63
2022-12-08T23:05:55.427Z,3.67
2022-12-08T23:08:25.173Z,3.67
2022-12-08T23:10:53.847Z,3.65
2022-12-08T23:13:21.220Z,3.66
2022-12-08T23:15:48.141Z,3.66
2022-12-08T23:18:18.765Z,3.63
2022-12-08T23:20:46.495Z,3.72
2022-12-08T23:23:13.851Z,3.70
2022-12-08T23:25:41.523Z,3.71
2022-12-08T23:28:08.379Z,3.76
2022-12-08T23:30:35.411Z,3.71
2022-12-08T23:33:02.262Z,3.75
2022-12-08T23:35:28.682Z,3.77
2022-12-08T23:37:55.037Z,3.82
2022-12-08T23:40:21.494Z,3.82
2022-12-08T23:42:48.433Z,3.86
2022-12-08T23:45:14.961Z,3.78
2022-12-08T23:47:41.448Z,3.84
2022-12-08T23:50:08.714Z,3.77
2022-12-08T23:52:35.369Z,3.86
2022-12-08T23:55:01.803Z,3.88
2022-12-08T23:57:28.627Z,3.87
2022-12-08T23:59:54.993Z,3.93
